메인 페이지
METAR-TAF:

METAR-TAF

공항 :

카르스, 터키

위도: 40-36N, 경도: 043-05E, 고도: 1775m

현재 날씨관측

예보는 1 시간 6분 전, 11:50시(UTC)에 발표되었습니다.
16kt
온도 18°C
습도 37%
기압 1022 hPa
시정 10km 이상
고도 3000ft 상공 구름 조금, 적란운.
고도 3000ft 상공 구름 많음

METAR: LTCF 051150Z 28016KT 9999 FEW030CB BKN030 18/03 Q1022

시각: 15:56 (12:56 UTC)

예보

예보는 2 시간 16분 전, 10:40시(UTC)에 발표되었습니다.
예보 대상 시간: 05일 12시부터 05일 21시까지 (UTC)
서북서14kt
시정 10km 이상
고도 3000ft 상공 구름 조금, 적란운.
고도 3500ft 상공 구름 많음
전환 중
05일 12시부터 05일 15시까지 (UTC)
여러 방향의 바람 2kt
일시적
05일 15시부터 05일 18시까지 (UTC)
뇌우, 약한비
전환 중
05일 18시부터 05일 20시까지 (UTC)
시정 10km 이상
1500m 미만 상공 구름 및 적란운 없음

TAF: LTCF 051040Z 0512/0521 30014KT 9999 FEW030CB BKN035 BECMG 0512/0515 VRB02KT TEMPO 0515/0518 -TSRA BECMG 0518/0520 CAVOK

4,000개 이상의 공항 관측 자료 및 예보 (METAR 및 TAF 보고).

지도상에서 검색 가능한 기상관측소가 노란 점과 빨간 점으로 표시되어 있습니다.

기상관측소 명을 보려면 표시 위로 마우스를 이동하세요.

날씨 관측과 예보를 보려면 클릭하세요.

지도 변경 : 확대하려면 엑스 표시가 있는 녹색 버튼, 축소하려면 빼기 표시가 있는 녹색 버튼, 다음 페이지의 지도를 보려면 녹색 화살표를 클릭하세요.


METAR-TAF: